createdAt,value
2018-05-15T00:01:45.193Z,77.30
2018-05-15T00:04:13.399Z,77.00
2018-05-15T00:06:42.407Z,77.70
2018-05-15T00:09:10.643Z,77.60
2018-05-15T00:11:38.888Z,78.40
2018-05-15T00:14:07.116Z,78.70
2018-05-15T00:16:36.113Z,79.20
2018-05-15T00:19:05.112Z,79.50
2018-05-15T00:21:33.353Z,79.40
2018-05-15T00:24:01.591Z,79.90
2018-05-15T00:26:29.823Z,80.00
2018-05-15T00:28:58.831Z,80.40
2018-05-15T00:31:27.056Z,80.40
2018-05-15T00:33:55.315Z,80.00
2018-05-15T00:36:23.546Z,79.00
2018-05-15T00:38:51.802Z,78.40
2018-05-15T00:41:20.032Z,79.10
2018-05-15T00:43:48.276Z,80.30
2018-05-15T00:46:16.498Z,79.60
2018-05-15T00:48:44.751Z,81.10
2018-05-15T00:51:12.984Z,80.80
2018-05-15T00:53:41.994Z,80.80
2018-05-15T00:56:10.222Z,80.80
2018-05-15T00:58:38.470Z,81.40
2018-05-15T01:01:06.707Z,81.20
2018-05-15T01:03:35.723Z,80.60
2018-05-15T01:06:03.952Z,80.40
2018-05-15T01:08:33.348Z,81.00
2018-05-15T01:11:01.611Z,80.90
2018-05-15T01:13:29.819Z,81.20
2018-05-15T01:15:58.062Z,82.70
2018-05-15T01:18:26.296Z,81.40
2018-05-15T01:20:54.822Z,82.10
2018-05-15T01:23:23.065Z,81.70
2018-05-15T01:25:51.299Z,81.50
2018-05-15T01:28:19.851Z,81.50
2018-05-15T01:30:48.090Z,80.80
2018-05-15T01:33:17.527Z,81.80
2018-05-15T01:35:45.760Z,81.80
2018-05-15T01:38:14.011Z,81.80
2018-05-15T01:40:42.239Z,82.30
2018-05-15T01:43:10.487Z,82.20
2018-05-15T01:45:38.715Z,82.40
2018-05-15T01:48:06.956Z,82.20
2018-05-15T01:50:35.559Z,82.30
2018-05-15T01:53:03.799Z,82.20
2018-05-15T01:55:32.027Z,81.70
2018-05-15T01:58:00.284Z,81.80
2018-05-15T02:00:29.270Z,81.80
2018-05-15T02:02:58.290Z,82.50
2018-05-15T02:05:26.577Z,82.40
2018-05-15T02:07:54.778Z,82.60
2018-05-15T02:10:23.010Z,83.30
2018-05-15T02:12:51.242Z,83.80
2018-05-15T02:15:19.486Z,84.50
2018-05-15T02:17:47.719Z,84.10
2018-05-15T02:20:15.958Z,84.90
2018-05-15T02:22:44.188Z,84.70
2018-05-15T02:25:12.439Z,85.10
2018-05-15T02:27:40.669Z,85.50
2018-05-15T02:30:08.904Z,86.10
2018-05-15T02:32:37.151Z,86.40
2018-05-15T02:35:06.164Z,86.50
2018-05-15T02:37:34.403Z,86.40
2018-05-15T02:40:02.639Z,87.10
2018-05-15T02:42:30.871Z,87.00
2018-05-15T02:44:59.882Z,87.60
2018-05-15T02:47:28.109Z,87.60
2018-05-15T02:49:56.351Z,87.70
2018-05-15T02:52:24.581Z,88.00
2018-05-15T02:54:53.604Z,87.40
2018-05-15T02:57:21.839Z,87.30
2018-05-15T02:59:50.855Z,89.50
2018-05-15T03:02:19.090Z,89.40
2018-05-15T03:04:47.335Z,90.20
2018-05-15T03:07:15.563Z,87.50
2018-05-15T03:09:44.571Z,88.30
2018-05-15T03:12:12.820Z,88.40
2018-05-15T03:14:41.829Z,89.00
2018-05-15T03:17:10.056Z,89.00
2018-05-15T03:19:38.295Z,89.00
2018-05-15T03:22:06.611Z,90.00
2018-05-15T03:24:34.855Z,88.20
2018-05-15T03:27:03.090Z,87.40
2018-05-15T03:29:31.340Z,88.60
2018-05-15T03:31:59.575Z,88.60
2018-05-15T03:34:27.824Z,88.90
2018-05-15T03:36:56.054Z,88.60
2018-05-15T03:39:25.086Z,89.00
2018-05-15T03:41:53.320Z,88.60
2018-05-15T03:44:21.575Z,88.40
2018-05-15T03:46:50.575Z,88.50
2018-05-15T03:49:18.824Z,88.50
2018-05-15T03:51:47.064Z,88.10
2018-05-15T03:54:16.075Z,88.60
2018-05-15T03:56:44.311Z,88.60
2018-05-15T03:59:13.328Z,88.60
2018-05-15T04:01:53.306Z,88.20
2018-05-15T04:04:33.502Z,88.60
2018-05-15T04:07:14.467Z,89.60
2018-05-15T04:09:42.714Z,89.70
2018-05-15T04:12:10.952Z,89.20
2018-05-15T04:14:39.198Z,88.70
2018-05-15T04:17:08.198Z,87.40
2018-05-15T04:19:37.230Z,87.60
2018-05-15T04:22:05.473Z,87.50
2018-05-15T04:24:34.466Z,86.80
2018-05-15T04:27:03.478Z,86.30
2018-05-15T04:29:31.708Z,86.20
2018-05-15T04:31:59.948Z,86.50
2018-05-15T04:34:28.179Z,86.40
2018-05-15T04:36:57.187Z,87.70
2018-05-15T04:39:25.423Z,87.70
2018-05-15T04:41:53.672Z,88.10
2018-05-15T04:44:21.903Z,88.50
2018-05-15T04:46:50.148Z,88.70
2018-05-15T04:49:19.166Z,89.40
2018-05-15T04:51:48.187Z,89.70
2018-05-15T04:54:16.420Z,89.60
2018-05-15T04:56:45.436Z,89.70
2018-05-15T04:59:13.671Z,89.60
2018-05-15T05:01:42.695Z,89.40
2018-05-15T05:04:10.935Z,88.60
2018-05-15T05:06:39.183Z,87.30
2018-05-15T05:09:07.416Z,86.20
2018-05-15T05:11:35.661Z,86.80
2018-05-15T05:14:04.234Z,85.90
2018-05-15T05:16:32.454Z,85.10
2018-05-15T05:19:00.694Z,83.20
2018-05-15T05:21:29.698Z,83.50
2018-05-15T05:23:58.699Z,82.70
2018-05-15T05:26:26.946Z,82.60
2018-05-15T05:28:55.171Z,83.30
2018-05-15T05:31:23.438Z,82.20
2018-05-15T05:33:51.659Z,82.20
2018-05-15T05:36:19.906Z,80.90
2018-05-15T05:38:48.135Z,80.30
2018-05-15T05:41:16.388Z,80.40
2018-05-15T05:43:45.395Z,80.70
2018-05-15T05:46:14.402Z,80.00
2018-05-15T05:48:42.628Z,79.90
2018-05-15T05:51:10.883Z,78.40
2018-05-15T05:53:39.111Z,78.50
2018-05-15T05:56:08.120Z,78.70
2018-05-15T05:58:36.355Z,78.70
2018-05-15T06:01:04.603Z,78.80
2018-05-15T06:03:32.827Z,77.20
2018-05-15T06:06:01.083Z,77.60
2018-05-15T06:08:30.079Z,77.50
2018-05-15T06:10:59.088Z,76.80
2018-05-15T06:13:27.547Z,76.70
2018-05-15T06:15:55.791Z,72.90
2018-05-15T06:18:24.035Z,74.50
2018-05-15T06:20:52.325Z,74.60
2018-05-15T06:23:21.279Z,70.90
2018-05-15T06:25:49.508Z,70.90
2018-05-15T06:28:17.763Z,70.60
2018-05-15T06:30:45.990Z,71.30
2018-05-15T06:33:15.004Z,69.20
2018-05-15T06:35:43.228Z,69.10
2018-05-15T06:38:11.475Z,70.90
2018-05-15T06:40:39.718Z,67.40
2018-05-15T06:43:07.991Z,67.50
2018-05-15T06:45:36.183Z,67.70
2018-05-15T06:48:04.420Z,65.80
2018-05-15T06:50:33.422Z,66.40
2018-05-15T06:53:01.670Z,66.40
2018-05-15T06:55:29.903Z,67.10
2018-05-15T06:57:58.148Z,65.40
2018-05-15T07:00:27.139Z,65.00
2018-05-15T07:02:55.387Z,64.90
2018-05-15T07:05:24.383Z,62.50
2018-05-15T07:07:53.395Z,62.10
2018-05-15T07:10:21.626Z,61.90
2018-05-15T07:12:49.863Z,62.60
2018-05-15T07:15:18.105Z,61.70
2018-05-15T07:17:47.124Z,62.50
2018-05-15T07:20:15.359Z,62.50
2018-05-15T07:22:43.611Z,60.90
2018-05-15T07:25:11.842Z,60.30
2018-05-15T07:27:40.093Z,60.50
2018-05-15T07:30:09.095Z,61.80
2018-05-15T07:32:37.339Z,61.70
2018-05-15T07:35:05.570Z,62.30
2018-05-15T07:37:34.108Z,58.60
2018-05-15T07:40:02.338Z,61.10
2018-05-15T07:42:30.587Z,60.50
2018-05-15T07:44:58.828Z,57.60
2018-05-15T07:47:27.834Z,62.20
2018-05-15T07:49:56.080Z,62.20
2018-05-15T07:52:24.319Z,57.10
2018-05-15T07:54:52.551Z,56.50
2018-05-15T07:57:21.563Z,56.10
2018-05-15T07:59:49.795Z,56.00
2018-05-15T08:02:18.042Z,57.20
2018-05-15T08:04:46.271Z,56.10
2018-05-15T08:07:14.520Z,57.70
2018-05-15T08:09:42.751Z,56.70
2018-05-15T08:12:11.016Z,56.30
2018-05-15T08:14:39.243Z,56.40
2018-05-15T08:17:08.239Z,56.40
2018-05-15T08:19:37.252Z,57.00
2018-05-15T08:22:05.489Z,56.30
2018-05-15T08:24:33.731Z,59.50
2018-05-15T08:27:01.971Z,57.80
2018-05-15T08:29:30.978Z,56.40
2018-05-15T08:31:59.206Z,56.40
2018-05-15T08:34:27.446Z,56.00
2018-05-15T08:36:55.676Z,56.10
2018-05-15T08:39:24.683Z,56.20
2018-05-15T08:41:52.924Z,56.00
2018-05-15T08:44:21.167Z,57.80
2018-05-15T08:46:49.400Z,57.70
2018-05-15T08:49:17.642Z,56.40
2018-05-15T08:51:45.883Z,59.10
2018-05-15T08:54:14.131Z,59.40
2018-05-15T08:56:42.375Z,56.20
2018-05-15T08:59:11.387Z,56.50
2018-05-15T09:01:39.625Z,56.30
2018-05-15T09:04:07.868Z,55.10
2018-05-15T09:06:36.100Z,57.40
2018-05-15T09:09:06.046Z,56.40
2018-05-15T09:11:34.278Z,56.40
2018-05-15T09:14:03.280Z,59.00
2018-05-15T09:16:32.278Z,55.10
2018-05-15T09:19:00.532Z,55.10
2018-05-15T09:21:29.526Z,54.00
2018-05-15T09:23:58.539Z,54.20
2018-05-15T09:26:26.775Z,54.00
2018-05-15T09:28:55.023Z,51.60
2018-05-15T09:31:23.251Z,50.70
2018-05-15T09:33:52.260Z,50.50
2018-05-15T09:36:20.504Z,50.50
2018-05-15T09:38:49.505Z,47.10
2018-05-15T09:41:17.735Z,47.10
2018-05-15T09:44:00.864Z,49.10
2018-05-15T09:46:29.090Z,51.60
2018-05-15T09:48:57.330Z,49.80
2018-05-15T09:51:25.554Z,52.00
2018-05-15T09:53:53.798Z,46.30
2018-05-15T09:56:22.028Z,44.40
2018-05-15T09:58:50.272Z,43.30
2018-05-15T10:01:18.505Z,43.70
2018-05-15T10:03:47.519Z,43.70
2018-05-15T10:06:15.745Z,43.70
2018-05-15T10:08:44.011Z,45.10
2018-05-15T10:11:12.243Z,45.90
2018-05-15T10:13:40.479Z,44.80
2018-05-15T10:16:08.715Z,41.80
2018-05-15T10:18:36.950Z,42.60
2018-05-15T10:21:05.960Z,42.30
2018-05-15T10:23:34.612Z,42.20
2018-05-15T10:26:02.842Z,40.00
2018-05-15T10:28:31.077Z,44.90
2018-05-15T10:31:00.090Z,42.20
2018-05-15T10:33:28.725Z,42.20
2018-05-15T10:35:56.943Z,40.30
2018-05-15T10:38:25.185Z,38.60
2018-05-15T10:40:53.427Z,43.30
2018-05-15T10:43:21.683Z,44.00
2018-05-15T10:45:49.925Z,39.60
2018-05-15T10:48:18.474Z,37.80
2018-05-15T10:50:46.715Z,38.80
2018-05-15T10:53:14.934Z,41.50
2018-05-15T10:55:43.947Z,39.80
2018-05-15T10:58:12.182Z,39.60
2018-05-15T11:00:40.429Z,39.50
2018-05-15T11:03:08.667Z,38.70
2018-05-15T11:05:36.927Z,37.70
2018-05-15T11:08:05.934Z,39.40
2018-05-15T11:10:34.180Z,39.40
2018-05-15T11:13:02.406Z,39.90
2018-05-15T11:15:31.094Z,40.40
2018-05-15T11:17:59.974Z,40.30
2018-05-15T11:20:40.067Z,40.10
2018-05-15T11:23:20.268Z,39.60
2018-05-15T11:25:49.284Z,42.90
2018-05-15T11:28:17.900Z,42.80
2018-05-15T11:30:46.888Z,40.40
2018-05-15T11:33:15.119Z,40.50
2018-05-15T11:35:43.421Z,42.50
2018-05-15T11:38:12.358Z,43.00
2018-05-15T11:40:41.116Z,43.10
2018-05-15T11:43:09.319Z,40.00
2018-05-15T11:45:37.572Z,37.60
2018-05-15T11:48:07.067Z,38.60
2018-05-15T11:50:36.466Z,38.20
2018-05-15T11:53:04.847Z,38.00
2018-05-15T11:55:35.294Z,37.10
2018-05-15T11:58:00.775Z,36.80
2018-05-15T12:00:29.699Z,40.10
2018-05-15T12:02:57.946Z,40.10
2018-05-15T12:05:26.187Z,41.30
2018-05-15T12:07:54.429Z,42.50
2018-05-15T12:10:22.671Z,42.40
2018-05-15T12:12:50.911Z,44.00
2018-05-15T12:15:19.170Z,44.20
2018-05-15T12:17:47.403Z,44.30
2018-05-15T12:20:16.396Z,44.20
2018-05-15T12:22:45.399Z,43.40
2018-05-15T12:25:13.637Z,43.40
2018-05-15T12:27:43.322Z,45.20
2018-05-15T12:30:10.099Z,43.40
2018-05-15T12:32:39.118Z,42.70
2018-05-15T12:35:07.349Z,42.60
2018-05-15T12:37:35.595Z,44.10
2018-05-15T12:40:03.831Z,45.00
2018-05-15T12:42:32.875Z,44.50
2018-05-15T12:45:01.111Z,44.50
2018-05-15T12:47:29.363Z,45.60
2018-05-15T12:49:58.362Z,44.50
2018-05-15T12:52:27.367Z,45.40
2018-05-15T12:54:55.631Z,45.40
2018-05-15T12:57:23.899Z,46.40
2018-05-15T12:59:52.894Z,47.60
2018-05-15T13:02:21.141Z,47.50
2018-05-15T13:04:49.367Z,49.00
2018-05-15T13:07:17.616Z,48.50
2018-05-15T13:09:45.856Z,47.10
2018-05-15T13:12:14.098Z,41.90
2018-05-15T13:14:42.326Z,43.30
2018-05-15T13:17:11.342Z,40.70
2018-05-15T13:19:39.574Z,40.70
2018-05-15T13:22:07.815Z,40.10
2018-05-15T13:24:36.098Z,39.30
2018-05-15T13:27:05.056Z,38.10
2018-05-15T13:29:33.295Z,38.10
2018-05-15T13:32:01.539Z,40.40
2018-05-15T13:34:29.764Z,39.70
2018-05-15T13:36:58.435Z,41.70
2018-05-15T13:39:26.651Z,38.40
2018-05-15T13:41:54.896Z,38.20
2018-05-15T13:44:23.127Z,38.90
2018-05-15T13:46:51.367Z,39.70
2018-05-15T13:49:19.596Z,40.70
2018-05-15T13:51:48.607Z,39.00
2018-05-15T13:54:16.831Z,39.00
2018-05-15T13:56:45.078Z,40.30
2018-05-15T13:59:13.315Z,42.10
2018-05-15T14:01:42.330Z,44.90
2018-05-15T14:04:10.547Z,44.80
2018-05-15T14:06:38.798Z,41.80
2018-05-15T14:09:07.015Z,41.90
2018-05-15T14:11:35.255Z,44.90
2018-05-15T14:14:03.491Z,43.90
2018-05-15T14:16:31.732Z,41.50
2018-05-15T14:19:00.000Z,41.50
2018-05-15T14:21:28.235Z,41.10
2018-05-15T14:23:56.506Z,40.30
2018-05-15T14:26:24.748Z,36.40
2018-05-15T14:28:53.755Z,35.30
2018-05-15T14:31:21.988Z,35.30
2018-05-15T14:33:50.230Z,37.10
2018-05-15T14:36:18.461Z,35.50
2018-05-15T14:38:47.477Z,33.50
2018-05-15T14:41:15.713Z,33.40
2018-05-15T14:43:43.959Z,33.70
2018-05-15T14:46:12.196Z,35.40
2018-05-15T14:48:40.980Z,36.00
2018-05-15T14:51:27.048Z,37.50
2018-05-15T14:53:56.051Z,36.30
2018-05-15T14:56:24.283Z,36.10
2018-05-15T14:58:52.583Z,35.80
2018-05-15T15:01:20.812Z,35.90
2018-05-15T15:03:49.051Z,37.50
2018-05-15T15:06:17.280Z,38.30
2018-05-15T15:08:45.527Z,40.20
2018-05-15T15:11:13.751Z,39.30
2018-05-15T15:13:42.774Z,38.00
2018-05-15T15:16:10.996Z,37.90
2018-05-15T15:18:39.247Z,38.90
2018-05-15T15:21:07.865Z,38.20
2018-05-15T15:23:36.161Z,38.30
2018-05-15T15:26:04.323Z,40.30
2018-05-15T15:28:33.330Z,39.80
2018-05-15T15:31:01.557Z,39.80
2018-05-15T15:33:29.799Z,38.90
2018-05-15T15:35:58.027Z,38.50
2018-05-15T15:38:26.275Z,37.30
2018-05-15T15:40:54.513Z,39.50
2018-05-15T15:43:22.754Z,39.90
2018-05-15T15:45:51.751Z,39.80
2018-05-15T15:48:20.768Z,41.00
2018-05-15T15:50:48.989Z,41.00
2018-05-15T15:53:17.227Z,40.60
2018-05-15T15:55:45.477Z,38.50
2018-05-15T15:58:14.480Z,39.90
2018-05-15T16:00:42.707Z,39.90
2018-05-15T16:03:10.951Z,38.90
2018-05-15T16:05:39.191Z,39.70
2018-05-15T16:08:07.420Z,40.20
2018-05-15T16:10:35.664Z,41.20
2018-05-15T16:13:04.294Z,41.90
2018-05-15T16:15:32.639Z,40.70
2018-05-15T16:18:00.875Z,41.10
2018-05-15T16:20:29.123Z,41.40
2018-05-15T16:22:57.342Z,42.70
2018-05-15T16:25:25.591Z,42.70
2018-05-15T16:27:53.822Z,42.50
2018-05-15T16:30:22.092Z,41.90
2018-05-15T16:32:50.360Z,42.10
2018-05-15T16:35:18.631Z,42.80
2018-05-15T16:37:47.215Z,42.50
2018-05-15T16:40:15.391Z,42.50
2018-05-15T16:42:43.887Z,42.10
2018-05-15T16:45:12.927Z,41.90
2018-05-15T16:47:41.314Z,41.90
2018-05-15T16:50:09.633Z,42.90
2018-05-15T16:52:38.547Z,44.20
2018-05-15T16:55:07.592Z,44.90
2018-05-15T16:57:35.860Z,44.90
2018-05-15T17:00:04.104Z,44.50
2018-05-15T17:02:32.372Z,44.60
2018-05-15T17:05:01.494Z,44.90
2018-05-15T17:07:29.758Z,44.90
2018-05-15T17:09:58.008Z,44.00
2018-05-15T17:12:26.584Z,44.00
2018-05-15T17:14:55.596Z,44.30
2018-05-15T17:17:24.449Z,44.10
2018-05-15T17:19:52.747Z,45.10
2018-05-15T17:22:21.749Z,46.20
2018-05-15T17:24:50.755Z,47.10
2018-05-15T17:27:18.986Z,47.10
2018-05-15T17:29:47.232Z,47.20
2018-05-15T17:32:15.464Z,49.40
2018-05-15T17:34:43.729Z,48.90
2018-05-15T17:37:12.712Z,47.40
2018-05-15T17:39:41.733Z,47.70
2018-05-15T17:42:09.967Z,47.60
2018-05-15T17:44:38.217Z,48.30
2018-05-15T17:47:07.307Z,48.90
2018-05-15T17:49:35.558Z,48.90
2018-05-15T17:52:03.804Z,49.60
2018-05-15T17:54:33.176Z,49.80
2018-05-15T17:57:01.381Z,49.70
2018-05-15T17:59:29.708Z,49.70
2018-05-15T18:01:58.638Z,51.20
2018-05-15T18:04:27.631Z,50.80
2018-05-15T18:06:56.643Z,51.20
2018-05-15T18:09:24.879Z,51.10
2018-05-15T18:11:53.175Z,50.90
2018-05-15T18:14:21.740Z,52.80
2018-05-15T18:16:49.979Z,52.80
2018-05-15T18:19:18.208Z,53.50
2018-05-15T18:21:46.538Z,53.90
2018-05-15T18:24:14.677Z,54.70
2018-05-15T18:26:42.915Z,55.10
2018-05-15T18:29:11.914Z,54.20
2018-05-15T18:31:41.745Z,54.50
2018-05-15T18:34:09.979Z,54.40
2018-05-15T18:36:38.992Z,52.00
2018-05-15T18:39:08.005Z,51.70
2018-05-15T18:41:36.235Z,51.60
2018-05-15T18:44:04.460Z,51.10
2018-05-15T18:46:32.700Z,52.10
2018-05-15T18:49:01.703Z,50.40
2018-05-15T18:51:29.953Z,50.30
2018-05-15T18:53:58.184Z,51.10
2018-05-15T18:56:26.435Z,53.30
2018-05-15T18:58:54.991Z,57.30
2018-05-15T19:01:23.995Z,60.70
2018-05-15T19:03:52.219Z,60.60
2018-05-15T19:06:20.472Z,62.50
2018-05-15T19:08:48.698Z,63.80
2018-05-15T19:11:19.607Z,64.90
2018-05-15T19:13:47.851Z,64.90
2018-05-15T19:16:17.315Z,66.50
2018-05-15T19:18:46.315Z,67.20
2018-05-15T19:21:15.331Z,67.60
2018-05-15T19:23:43.560Z,67.60
2018-05-15T19:26:11.801Z,68.10
2018-05-15T19:28:40.027Z,69.00
2018-05-15T19:31:14.886Z,69.70
2018-05-15T19:33:43.119Z,69.70
2018-05-15T19:36:12.138Z,71.60
2018-05-15T19:38:40.375Z,71.50
2018-05-15T19:41:08.610Z,72.20
2018-05-15T19:43:36.847Z,72.80
2018-05-15T19:46:05.106Z,72.60
2018-05-15T19:48:34.099Z,73.20
2018-05-15T19:51:03.104Z,73.70
2018-05-15T19:53:31.342Z,73.50
2018-05-15T19:55:59.594Z,72.90
2018-05-15T19:58:27.819Z,72.90
2018-05-15T20:00:56.836Z,72.90
2018-05-15T20:03:25.062Z,72.90
2018-05-15T20:05:53.312Z,73.90
2018-05-15T20:08:21.536Z,74.20
2018-05-15T20:10:50.193Z,73.30
2018-05-15T20:13:18.392Z,72.90
2018-05-15T20:15:47.404Z,74.60
2018-05-15T20:18:15.660Z,74.50
2018-05-15T20:20:44.655Z,75.70
2018-05-15T20:23:12.907Z,75.70
2018-05-15T20:25:41.900Z,76.60
2018-05-15T20:28:11.351Z,76.40
2018-05-15T20:30:40.206Z,76.30
2018-05-15T20:33:08.511Z,76.80
2018-05-15T20:35:36.743Z,76.80
2018-05-15T20:38:05.751Z,78.60
2018-05-15T20:40:33.998Z,78.50
2018-05-15T20:43:02.242Z,79.50
2018-05-15T20:45:30.463Z,78.90
2018-05-15T20:47:59.472Z,81.00
2018-05-15T20:50:27.710Z,81.00
2018-05-15T20:52:55.950Z,81.90
2018-05-15T20:55:24.186Z,81.90
2018-05-15T20:57:52.424Z,81.90
2018-05-15T21:00:20.660Z,81.80
2018-05-15T21:02:48.905Z,82.70
2018-05-15T21:05:17.134Z,83.50
2018-05-15T21:07:45.382Z,80.70
2018-05-15T21:10:13.618Z,81.50
2018-05-15T21:12:42.901Z,80.40
2018-05-15T21:15:11.146Z,80.40
2018-05-15T21:17:39.375Z,81.40
2018-05-15T21:20:07.603Z,81.30
2018-05-15T21:22:35.845Z,81.00
2018-05-15T21:25:04.073Z,81.10
2018-05-15T21:27:33.087Z,81.80
2018-05-15T21:30:01.318Z,81.30
2018-05-15T21:32:29.563Z,81.80
2018-05-15T21:34:57.794Z,81.20
2018-05-15T21:37:26.804Z,82.70
2018-05-15T21:39:55.026Z,82.70
2018-05-15T21:42:23.275Z,83.20
2018-05-15T21:44:51.551Z,82.90
2018-05-15T21:47:19.805Z,83.30
2018-05-15T21:49:48.258Z,83.60
2018-05-15T21:52:16.486Z,83.60
2018-05-15T21:54:44.719Z,84.40
2018-05-15T21:57:12.967Z,84.50
2018-05-15T21:59:41.204Z,85.30
2018-05-15T22:02:09.443Z,87.20
2018-05-15T22:04:37.672Z,87.60
2018-05-15T22:07:06.127Z,88.00
2018-05-15T22:09:34.360Z,89.60
2018-05-15T22:12:15.421Z,90.90
2018-05-15T22:15:01.927Z,90.90
2018-05-15T22:17:48.223Z,91.30
2018-05-15T22:20:34.450Z,91.50
2018-05-15T22:23:08.523Z,92.20
2018-05-15T22:25:36.502Z,92.40
2018-05-15T22:28:05.520Z,92.90
2018-05-15T22:30:33.755Z,92.90
2018-05-15T22:33:02.766Z,93.50
2018-05-15T22:35:32.146Z,94.00
2018-05-15T22:38:00.370Z,94.00
2018-05-15T22:40:28.622Z,93.70
2018-05-15T22:42:56.870Z,94.70
2018-05-15T22:45:25.879Z,95.30
2018-05-15T22:47:54.139Z,95.20
2018-05-15T22:50:23.146Z,95.10
2018-05-15T22:52:52.157Z,95.50
2018-05-15T22:55:20.395Z,95.50
2018-05-15T22:57:48.639Z,95.20
2018-05-15T23:00:16.887Z,95.70
2018-05-15T23:02:45.136Z,95.60
2018-05-15T23:05:13.794Z,95.70
2018-05-15T23:07:42.015Z,95.30
2018-05-15T23:10:10.247Z,95.60
2018-05-15T23:12:39.263Z,95.50
2018-05-15T23:15:07.500Z,95.40
2018-05-15T23:17:35.995Z,95.50
2018-05-15T23:20:04.999Z,96.50
2018-05-15T23:22:41.966Z,96.50
2018-05-15T23:25:10.979Z,96.70
2018-05-15T23:27:39.240Z,96.70
2018-05-15T23:30:08.259Z,97.30
2018-05-15T23:32:36.500Z,97.30
2018-05-15T23:35:05.514Z,96.80
2018-05-15T23:37:33.758Z,96.80
2018-05-15T23:40:02.780Z,97.30
2018-05-15T23:42:31.012Z,97.10
2018-05-15T23:44:59.266Z,97.00
2018-05-15T23:47:28.266Z,97.50
2018-05-15T23:49:56.520Z,97.50
2018-05-15T23:52:24.758Z,97.40
2018-05-15T23:54:53.015Z,97.30
2018-05-15T23:57:22.023Z,97.20
2018-05-15T23:59:50.278Z,97.20
